Tobaccoville, North Carolina
Current Conditions -  °F | °C
As of 10:54 AM on Saturday 20 Dec 2014 (Local Time) from KINT Reporting Station
Overcast Overcast  
Wind Chill: 30°   Ceiling: 6000
Heat Index: 35°   Visibility: 10mi
Dew Point: 28°   Wind: 6mph
Humidity: 76%   Direction: 40°NE
Pressure: 30.28"   Gusts: NA
Location:  36.24°N, 80.37°W
Report Text: KINT 201554Z 04005KT 10SM OVC060 02/M02 A3028 RMK AO2 SNB1459E10 SLP257 P0000 T00171022
Loading
Personal Weather Stations






























Interactive Weather Map New forecast layout! Learn more

10-Day Weather Forecast

Advertisements
Track Severe Weather on mobile